sensor_id;sensor_type;location;lat;lon;timestamp;P1;durP1;ratioP1;P2;durP2;ratioP2
3845;SDS011;1938;50.812;7.738;2023-04-29T00:00:06;19.80;;;10.47;;
3845;SDS011;1938;50.812;7.738;2023-04-29T00:02:32;22.67;;;12.10;;
3845;SDS011;1938;50.812;7.738;2023-04-29T00:04:58;19.77;;;12.90;;
3845;SDS011;1938;50.812;7.738;2023-04-29T00:07:23;22.20;;;13.80;;
3845;SDS011;1938;50.812;7.738;2023-04-29T00:09:49;18.33;;;11.53;;
3845;SDS011;1938;50.812;7.738;2023-04-29T00:12:15;20.93;;;12.30;;
3845;SDS011;1938;50.812;7.738;2023-04-29T00:14:40;22.37;;;13.53;;
3845;SDS011;1938;50.812;7.738;2023-04-29T00:17:07;19.20;;;12.70;;
3845;SDS011;1938;50.812;7.738;2023-04-29T00:19:33;21.50;;;13.00;;
3845;SDS011;1938;50.812;7.738;2023-04-29T00:21:58;23.47;;;13.90;;
3845;SDS011;1938;50.812;7.738;2023-04-29T00:24:25;24.37;;;13.87;;
3845;SDS011;1938;50.812;7.738;2023-04-29T00:26:51;22.30;;;13.97;;
3845;SDS011;1938;50.812;7.738;2023-04-29T00:29:16;23.00;;;13.80;;
3845;SDS011;1938;50.812;7.738;2023-04-29T00:31:42;26.03;;;14.60;;
3845;SDS011;1938;50.812;7.738;2023-04-29T00:34:08;24.00;;;13.33;;
3845;SDS011;1938;50.812;7.738;2023-04-29T00:36:34;27.03;;;14.27;;
3845;SDS011;1938;50.812;7.738;2023-04-29T00:39:00;24.33;;;13.73;;
3845;SDS011;1938;50.812;7.738;2023-04-29T00:41:26;25.80;;;14.27;;
3845;SDS011;1938;50.812;7.738;2023-04-29T00:43:52;26.63;;;15.67;;
3845;SDS011;1938;50.812;7.738;2023-04-29T00:46:18;23.20;;;13.43;;
3845;SDS011;1938;50.812;7.738;2023-04-29T00:48:43;25.93;;;14.43;;
3845;SDS011;1938;50.812;7.738;2023-04-29T00:51:09;24.30;;;14.77;;
3845;SDS011;1938;50.812;7.738;2023-04-29T00:53:35;24.83;;;13.87;;
3845;SDS011;1938;50.812;7.738;2023-04-29T00:56:02;22.13;;;13.30;;
3845;SDS011;1938;50.812;7.738;2023-04-29T00:58:30;26.50;;;12.33;;
3845;SDS011;1938;50.812;7.738;2023-04-29T01:01:00;21.30;;;12.57;;
3845;SDS011;1938;50.812;7.738;2023-04-29T01:03:27;20.33;;;10.70;;
3845;SDS011;1938;50.812;7.738;2023-04-29T01:06:16;21.57;;;12.70;;
3845;SDS011;1938;50.812;7.738;2023-04-29T01:09:06;24.43;;;12.07;;
3845;SDS011;1938;50.812;7.738;2023-04-29T01:11:47;23.70;;;12.07;;
3845;SDS011;1938;50.812;7.738;2023-04-29T01:14:19;23.70;;;12.07;;
3845;SDS011;1938;50.812;7.738;2023-04-29T01:16:51;27.93;;;12.67;;
3845;SDS011;1938;50.812;7.738;2023-04-29T01:19:42;23.73;;;11.60;;
3845;SDS011;1938;50.812;7.738;2023-04-29T01:22:12;16.50;;;9.73;;
3845;SDS011;1938;50.812;7.738;2023-04-29T01:24:39;18.50;;;10.33;;
3845;SDS011;1938;50.812;7.738;2023-04-29T01:27:09;18.83;;;10.77;;
3845;SDS011;1938;50.812;7.738;2023-04-29T01:32:45;18.17;;;9.60;;
3845;SDS011;1938;50.812;7.738;2023-04-29T01:41:03;20.03;;;10.37;;
3845;SDS011;1938;50.812;7.738;2023-04-29T01:43:35;18.57;;;9.77;;
3845;SDS011;1938;50.812;7.738;2023-04-29T01:46:04;16.10;;;9.20;;
3845;SDS011;1938;50.812;7.738;2023-04-29T01:48:33;15.40;;;9.20;;
3845;SDS011;1938;50.812;7.738;2023-04-29T01:50:58;18.53;;;9.00;;
3845;SDS011;1938;50.812;7.738;2023-04-29T01:53:24;16.30;;;8.60;;
3845;SDS011;1938;50.812;7.738;2023-04-29T01:55:49;16.33;;;9.20;;
3845;SDS011;1938;50.812;7.738;2023-04-29T01:58:15;17.70;;;8.47;;
3845;SDS011;1938;50.812;7.738;2023-04-29T02:00:40;16.47;;;8.30;;
3845;SDS011;1938;50.812;7.738;2023-04-29T02:03:06;18.97;;;9.03;;
3845;SDS011;1938;50.812;7.738;2023-04-29T02:05:32;15.43;;;8.60;;
3845;SDS011;1938;50.812;7.738;2023-04-29T02:07:58;15.77;;;8.97;;
3845;SDS011;1938;50.812;7.738;2023-04-29T02:10:24;18.10;;;8.63;;
3845;SDS011;1938;50.812;7.738;2023-04-29T02:12:50;18.60;;;9.43;;
3845;SDS011;1938;50.812;7.738;2023-04-29T02:15:17;13.00;;;7.40;;
3845;SDS011;1938;50.812;7.738;2023-04-29T02:17:43;15.90;;;8.50;;
3845;SDS011;1938;50.812;7.738;2023-04-29T02:20:09;15.50;;;7.77;;
3845;SDS011;1938;50.812;7.738;2023-04-29T02:22:35;17.43;;;8.60;;
3845;SDS011;1938;50.812;7.738;2023-04-29T02:25:01;16.37;;;7.50;;
3845;SDS011;1938;50.812;7.738;2023-04-29T02:27:26;14.20;;;7.70;;
3845;SDS011;1938;50.812;7.738;2023-04-29T02:29:52;15.40;;;7.80;;
3845;SDS011;1938;50.812;7.738;2023-04-29T02:32:17;14.27;;;8.13;;
3845;SDS011;1938;50.812;7.738;2023-04-29T02:34:44;13.20;;;7.43;;
3845;SDS011;1938;50.812;7.738;2023-04-29T02:37:10;20.10;;;9.40;;
3845;SDS011;1938;50.812;7.738;2023-04-29T02:39:35;20.47;;;9.50;;
3845;SDS011;1938;50.812;7.738;2023-04-29T02:42:01;13.80;;;5.87;;
3845;SDS011;1938;50.812;7.738;2023-04-29T02:44:27;17.83;;;8.47;;
3845;SDS011;1938;50.812;7.738;2023-04-29T02:46:52;20.53;;;8.50;;
3845;SDS011;1938;50.812;7.738;2023-04-29T02:49:18;18.50;;;9.70;;
3845;SDS011;1938;50.812;7.738;2023-04-29T02:51:45;17.80;;;9.47;;
3845;SDS011;1938;50.812;7.738;2023-04-29T02:54:10;18.07;;;7.23;;
3845;SDS011;1938;50.812;7.738;2023-04-29T02:56:36;26.70;;;10.60;;
3845;SDS011;1938;50.812;7.738;2023-04-29T02:59:03;25.83;;;10.87;;
3845;SDS011;1938;50.812;7.738;2023-04-29T03:01:28;21.87;;;10.37;;
3845;SDS011;1938;50.812;7.738;2023-04-29T03:03:54;24.03;;;9.47;;
3845;SDS011;1938;50.812;7.738;2023-04-29T03:06:19;28.87;;;12.73;;
3845;SDS011;1938;50.812;7.738;2023-04-29T03:08:45;25.70;;;11.20;;
3845;SDS011;1938;50.812;7.738;2023-04-29T03:11:10;28.80;;;12.40;;
3845;SDS011;1938;50.812;7.738;2023-04-29T03:13:36;32.77;;;12.70;;
3845;SDS011;1938;50.812;7.738;2023-04-29T03:16:03;35.13;;;14.53;;
3845;SDS011;1938;50.812;7.738;2023-04-29T03:18:30;28.43;;;13.10;;
3845;SDS011;1938;50.812;7.738;2023-04-29T03:20:56;35.27;;;14.80;;
3845;SDS011;1938;50.812;7.738;2023-04-29T03:23:22;35.60;;;15.33;;
3845;SDS011;1938;50.812;7.738;2023-04-29T03:25:47;33.73;;;15.67;;
3845;SDS011;1938;50.812;7.738;2023-04-29T03:28:14;45.03;;;18.83;;
3845;SDS011;1938;50.812;7.738;2023-04-29T03:30:40;41.37;;;16.97;;
3845;SDS011;1938;50.812;7.738;2023-04-29T03:33:06;43.37;;;17.70;;
3845;SDS011;1938;50.812;7.738;2023-04-29T03:35:31;40.30;;;15.80;;
3845;SDS011;1938;50.812;7.738;2023-04-29T03:37:57;40.90;;;18.47;;
3845;SDS011;1938;50.812;7.738;2023-04-29T03:40:22;48.70;;;19.73;;
3845;SDS011;1938;50.812;7.738;2023-04-29T03:42:48;50.53;;;18.70;;
3845;SDS011;1938;50.812;7.738;2023-04-29T03:45:13;42.20;;;20.03;;
3845;SDS011;1938;50.812;7.738;2023-04-29T03:47:39;55.57;;;20.70;;
3845;SDS011;1938;50.812;7.738;2023-04-29T03:50:06;51.10;;;22.53;;
3845;SDS011;1938;50.812;7.738;2023-04-29T03:52:32;49.53;;;22.73;;
3845;SDS011;1938;50.812;7.738;2023-04-29T03:55:01;55.17;;;23.77;;
3845;SDS011;1938;50.812;7.738;2023-04-29T03:57:27;52.33;;;22.90;;
3845;SDS011;1938;50.812;7.738;2023-04-29T03:59:53;51.97;;;21.90;;
3845;SDS011;1938;50.812;7.738;2023-04-29T04:02:19;53.77;;;21.80;;
3845;SDS011;1938;50.812;7.738;2023-04-29T04:04:44;54.90;;;23.73;;
3845;SDS011;1938;50.812;7.738;2023-04-29T04:07:10;52.67;;;23.47;;
3845;SDS011;1938;50.812;7.738;2023-04-29T04:09:36;50.63;;;23.47;;
3845;SDS011;1938;50.812;7.738;2023-04-29T04:12:02;58.17;;;24.17;;
3845;SDS011;1938;50.812;7.738;2023-04-29T04:14:29;52.23;;;23.20;;
3845;SDS011;1938;50.812;7.738;2023-04-29T04:16:55;62.03;;;26.47;;
3845;SDS011;1938;50.812;7.738;2023-04-29T04:19:21;63.83;;;25.73;;
3845;SDS011;1938;50.812;7.738;2023-04-29T04:21:46;55.73;;;24.50;;
3845;SDS011;1938;50.812;7.738;2023-04-29T04:24:12;69.03;;;26.80;;
3845;SDS011;1938;50.812;7.738;2023-04-29T04:26:38;65.13;;;26.10;;
3845;SDS011;1938;50.812;7.738;2023-04-29T04:29:05;72.23;;;24.57;;
3845;SDS011;1938;50.812;7.738;2023-04-29T04:31:30;74.50;;;25.20;;
3845;SDS011;1938;50.812;7.738;2023-04-29T04:33:56;57.43;;;23.50;;
3845;SDS011;1938;50.812;7.738;2023-04-29T04:36:23;60.40;;;26.30;;
3845;SDS011;1938;50.812;7.738;2023-04-29T04:38:49;64.47;;;26.07;;
3845;SDS011;1938;50.812;7.738;2023-04-29T04:41:14;60.43;;;24.87;;
3845;SDS011;1938;50.812;7.738;2023-04-29T04:43:40;59.77;;;22.67;;
3845;SDS011;1938;50.812;7.738;2023-04-29T04:46:12;65.67;;;26.57;;
3845;SDS011;1938;50.812;7.738;2023-04-29T04:48:39;69.27;;;26.37;;
3845;SDS011;1938;50.812;7.738;2023-04-29T04:51:08;65.87;;;27.30;;
3845;SDS011;1938;50.812;7.738;2023-04-29T04:53:34;67.03;;;25.90;;
3845;SDS011;1938;50.812;7.738;2023-04-29T04:56:00;76.90;;;28.00;;
3845;SDS011;1938;50.812;7.738;2023-04-29T04:58:26;73.70;;;30.07;;
3845;SDS011;1938;50.812;7.738;2023-04-29T05:00:51;60.07;;;25.07;;
3845;SDS011;1938;50.812;7.738;2023-04-29T05:03:17;67.70;;;25.60;;
3845;SDS011;1938;50.812;7.738;2023-04-29T05:05:44;63.30;;;25.10;;
3845;SDS011;1938;50.812;7.738;2023-04-29T05:08:09;71.63;;;26.70;;
3845;SDS011;1938;50.812;7.738;2023-04-29T05:10:38;72.20;;;25.90;;
3845;SDS011;1938;50.812;7.738;2023-04-29T05:13:03;67.63;;;24.60;;
3845;SDS011;1938;50.812;7.738;2023-04-29T05:15:29;69.77;;;25.27;;
3845;SDS011;1938;50.812;7.738;2023-04-29T05:17:54;73.93;;;27.20;;
3845;SDS011;1938;50.812;7.738;2023-04-29T05:20:20;79.43;;;28.20;;
3845;SDS011;1938;50.812;7.738;2023-04-29T05:22:46;64.20;;;25.70;;
3845;SDS011;1938;50.812;7.738;2023-04-29T05:25:11;59.10;;;24.20;;
3845;SDS011;1938;50.812;7.738;2023-04-29T05:27:38;68.47;;;25.10;;
3845;SDS011;1938;50.812;7.738;2023-04-29T05:30:04;61.87;;;22.67;;
3845;SDS011;1938;50.812;7.738;2023-04-29T05:32:30;68.87;;;23.03;;
3845;SDS011;1938;50.812;7.738;2023-04-29T05:34:55;54.30;;;20.40;;
3845;SDS011;1938;50.812;7.738;2023-04-29T05:37:22;32.63;;;11.10;;
3845;SDS011;1938;50.812;7.738;2023-04-29T05:39:47;64.57;;;20.90;;
3845;SDS011;1938;50.812;7.738;2023-04-29T05:42:13;56.17;;;21.30;;
3845;SDS011;1938;50.812;7.738;2023-04-29T05:44:38;59.97;;;23.57;;
3845;SDS011;1938;50.812;7.738;2023-04-29T05:47:04;60.97;;;21.00;;
3845;SDS011;1938;50.812;7.738;2023-04-29T05:49:31;63.93;;;24.00;;
3845;SDS011;1938;50.812;7.738;2023-04-29T05:51:56;88.63;;;28.27;;
3845;SDS011;1938;50.812;7.738;2023-04-29T05:54:22;67.70;;;26.47;;
3845;SDS011;1938;50.812;7.738;2023-04-29T05:56:47;76.90;;;26.53;;
3845;SDS011;1938;50.812;7.738;2023-04-29T05:59:13;73.97;;;24.97;;
3845;SDS011;1938;50.812;7.738;2023-04-29T06:01:39;60.47;;;24.40;;
3845;SDS011;1938;50.812;7.738;2023-04-29T06:04:06;56.67;;;23.90;;
3845;SDS011;1938;50.812;7.738;2023-04-29T06:06:31;62.07;;;23.87;;
3845;SDS011;1938;50.812;7.738;2023-04-29T06:08:58;58.87;;;24.20;;
3845;SDS011;1938;50.812;7.738;2023-04-29T06:11:24;62.47;;;25.87;;
3845;SDS011;1938;50.812;7.738;2023-04-29T06:13:51;54.57;;;22.07;;
3845;SDS011;1938;50.812;7.738;2023-04-29T06:16:17;51.30;;;22.20;;
3845;SDS011;1938;50.812;7.738;2023-04-29T06:18:42;43.50;;;20.10;;
3845;SDS011;1938;50.812;7.738;2023-04-29T06:21:08;41.03;;;18.33;;
3845;SDS011;1938;50.812;7.738;2023-04-29T06:23:34;41.43;;;18.40;;
3845;SDS011;1938;50.812;7.738;2023-04-29T06:26:00;46.17;;;19.70;;
3845;SDS011;1938;50.812;7.738;2023-04-29T06:28:25;46.10;;;20.50;;
3845;SDS011;1938;50.812;7.738;2023-04-29T06:30:52;36.47;;;17.73;;
3845;SDS011;1938;50.812;7.738;2023-04-29T06:33:18;39.43;;;17.67;;
3845;SDS011;1938;50.812;7.738;2023-04-29T06:35:43;35.70;;;17.40;;
3845;SDS011;1938;50.812;7.738;2023-04-29T06:38:09;33.20;;;16.30;;
3845;SDS011;1938;50.812;7.738;2023-04-29T06:40:35;31.87;;;15.73;;
3845;SDS011;1938;50.812;7.738;2023-04-29T06:43:01;34.70;;;16.03;;
3845;SDS011;1938;50.812;7.738;2023-04-29T06:45:28;34.50;;;15.93;;
3845;SDS011;1938;50.812;7.738;2023-04-29T06:47:54;32.80;;;14.83;;
3845;SDS011;1938;50.812;7.738;2023-04-29T06:50:20;29.50;;;15.40;;
3845;SDS011;1938;50.812;7.738;2023-04-29T06:52:46;29.53;;;15.20;;
3845;SDS011;1938;50.812;7.738;2023-04-29T06:55:11;31.50;;;14.77;;
3845;SDS011;1938;50.812;7.738;2023-04-29T06:57:37;30.53;;;13.10;;
3845;SDS011;1938;50.812;7.738;2023-04-29T07:00:02;26.30;;;12.30;;
3845;SDS011;1938;50.812;7.738;2023-04-29T07:02:29;22.07;;;12.17;;
3845;SDS011;1938;50.812;7.738;2023-04-29T07:04:55;22.70;;;11.90;;
3845;SDS011;1938;50.812;7.738;2023-04-29T07:07:20;17.63;;;8.77;;
3845;SDS011;1938;50.812;7.738;2023-04-29T07:09:46;27.13;;;12.80;;
3845;SDS011;1938;50.812;7.738;2023-04-29T07:12:14;19.17;;;8.80;;
3845;SDS011;1938;50.812;7.738;2023-04-29T07:14:40;23.00;;;11.40;;
3845;SDS011;1938;50.812;7.738;2023-04-29T07:17:05;21.97;;;10.67;;
3845;SDS011;1938;50.812;7.738;2023-04-29T07:19:32;24.03;;;12.20;;
3845;SDS011;1938;50.812;7.738;2023-04-29T07:21:58;25.17;;;10.77;;
3845;SDS011;1938;50.812;7.738;2023-04-29T07:24:24;24.97;;;11.40;;
3845;SDS011;1938;50.812;7.738;2023-04-29T07:26:50;22.67;;;10.90;;
3845;SDS011;1938;50.812;7.738;2023-04-29T07:29:17;22.77;;;9.73;;
3845;SDS011;1938;50.812;7.738;2023-04-29T07:31:42;36.27;;;13.63;;
3845;SDS011;1938;50.812;7.738;2023-04-29T07:34:08;22.43;;;11.33;;
3845;SDS011;1938;50.812;7.738;2023-04-29T07:36:34;33.07;;;14.80;;
3845;SDS011;1938;50.812;7.738;2023-04-29T07:39:00;26.83;;;12.50;;
3845;SDS011;1938;50.812;7.738;2023-04-29T07:41:26;30.20;;;13.90;;
3845;SDS011;1938;50.812;7.738;2023-04-29T07:43:52;26.50;;;12.30;;
3845;SDS011;1938;50.812;7.738;2023-04-29T07:46:18;30.10;;;13.67;;
3845;SDS011;1938;50.812;7.738;2023-04-29T07:48:44;31.13;;;14.30;;
3845;SDS011;1938;50.812;7.738;2023-04-29T07:51:13;27.87;;;11.90;;
3845;SDS011;1938;50.812;7.738;2023-04-29T07:53:39;30.57;;;13.53;;
3845;SDS011;1938;50.812;7.738;2023-04-29T07:56:05;31.20;;;13.67;;
3845;SDS011;1938;50.812;7.738;2023-04-29T07:58:32;34.47;;;14.97;;
3845;SDS011;1938;50.812;7.738;2023-04-29T08:01:04;24.70;;;13.33;;
3845;SDS011;1938;50.812;7.738;2023-04-29T08:03:35;31.90;;;13.60;;
3845;SDS011;1938;50.812;7.738;2023-04-29T08:06:01;26.43;;;13.43;;
3845;SDS011;1938;50.812;7.738;2023-04-29T08:08:27;24.57;;;12.83;;
3845;SDS011;1938;50.812;7.738;2023-04-29T08:10:56;24.60;;;11.60;;
3845;SDS011;1938;50.812;7.738;2023-04-29T08:13:23;30.70;;;14.67;;
3845;SDS011;1938;50.812;7.738;2023-04-29T08:15:49;31.47;;;13.40;;
3845;SDS011;1938;50.812;7.738;2023-04-29T08:18:16;31.03;;;13.70;;
3845;SDS011;1938;50.812;7.738;2023-04-29T08:20:42;20.80;;;9.83;;
3845;SDS011;1938;50.812;7.738;2023-04-29T08:23:07;33.20;;;12.73;;
3845;SDS011;1938;50.812;7.738;2023-04-29T08:25:34;28.53;;;13.40;;
3845;SDS011;1938;50.812;7.738;2023-04-29T08:27:59;26.83;;;11.80;;
3845;SDS011;1938;50.812;7.738;2023-04-29T08:30:25;21.77;;;11.13;;
3845;SDS011;1938;50.812;7.738;2023-04-29T08:32:50;24.57;;;12.50;;
3845;SDS011;1938;50.812;7.738;2023-04-29T08:35:16;24.93;;;12.97;;
3845;SDS011;1938;50.812;7.738;2023-04-29T08:37:41;23.90;;;13.03;;
3845;SDS011;1938;50.812;7.738;2023-04-29T08:40:07;23.20;;;11.37;;
3845;SDS011;1938;50.812;7.738;2023-04-29T08:42:34;21.87;;;12.13;;
3845;SDS011;1938;50.812;7.738;2023-04-29T08:45:01;21.27;;;10.20;;
3845;SDS011;1938;50.812;7.738;2023-04-29T08:47:31;23.63;;;12.07;;
3845;SDS011;1938;50.812;7.738;2023-04-29T08:50:01;18.57;;;9.83;;
3845;SDS011;1938;50.812;7.738;2023-04-29T08:52:32;18.27;;;9.60;;
3845;SDS011;1938;50.812;7.738;2023-04-29T08:54:58;19.30;;;11.20;;
3845;SDS011;1938;50.812;7.738;2023-04-29T08:57:26;19.23;;;10.40;;
3845;SDS011;1938;50.812;7.738;2023-04-29T08:59:53;27.47;;;11.00;;
3845;SDS011;1938;50.812;7.738;2023-04-29T09:02:19;22.43;;;11.23;;
3845;SDS011;1938;50.812;7.738;2023-04-29T09:04:48;17.90;;;10.00;;
3845;SDS011;1938;50.812;7.738;2023-04-29T09:07:22;22.23;;;10.40;;
3845;SDS011;1938;50.812;7.738;2023-04-29T09:09:49;16.67;;;9.03;;
3845;SDS011;1938;50.812;7.738;2023-04-29T09:12:17;17.13;;;9.30;;
3845;SDS011;1938;50.812;7.738;2023-04-29T09:14:43;20.53;;;9.40;;
3845;SDS011;1938;50.812;7.738;2023-04-29T09:17:09;18.57;;;10.07;;
3845;SDS011;1938;50.812;7.738;2023-04-29T09:19:35;19.17;;;9.50;;
3845;SDS011;1938;50.812;7.738;2023-04-29T09:22:01;19.60;;;10.73;;
3845;SDS011;1938;50.812;7.738;2023-04-29T09:24:28;23.17;;;10.67;;
3845;SDS011;1938;50.812;7.738;2023-04-29T09:26:56;19.50;;;10.53;;
3845;SDS011;1938;50.812;7.738;2023-04-29T09:29:23;21.47;;;10.73;;
3845;SDS011;1938;50.812;7.738;2023-04-29T09:31:49;18.00;;;10.90;;
3845;SDS011;1938;50.812;7.738;2023-04-29T09:34:29;18.97;;;10.90;;
3845;SDS011;1938;50.812;7.738;2023-04-29T09:36:56;23.43;;;11.87;;
3845;SDS011;1938;50.812;7.738;2023-04-29T09:39:23;20.40;;;11.07;;
3845;SDS011;1938;50.812;7.738;2023-04-29T09:46:59;22.90;;;11.20;;
3845;SDS011;1938;50.812;7.738;2023-04-29T09:49:36;21.20;;;11.50;;
3845;SDS011;1938;50.812;7.738;2023-04-29T09:52:07;23.83;;;12.47;;
3845;SDS011;1938;50.812;7.738;2023-04-29T09:54:35;23.93;;;11.50;;
3845;SDS011;1938;50.812;7.738;2023-04-29T09:57:02;21.80;;;11.50;;
3845;SDS011;1938;50.812;7.738;2023-04-29T09:59:32;23.90;;;11.30;;
3845;SDS011;1938;50.812;7.738;2023-04-29T10:02:00;21.23;;;11.40;;
3845;SDS011;1938;50.812;7.738;2023-04-29T10:04:33;18.70;;;12.07;;
3845;SDS011;1938;50.812;7.738;2023-04-29T10:07:02;25.10;;;12.03;;
3845;SDS011;1938;50.812;7.738;2023-04-29T10:09:28;22.60;;;11.87;;
3845;SDS011;1938;50.812;7.738;2023-04-29T10:11:55;21.00;;;12.03;;
3845;SDS011;1938;50.812;7.738;2023-04-29T10:14:21;24.37;;;11.97;;
3845;SDS011;1938;50.812;7.738;2023-04-29T10:19:30;22.33;;;11.97;;
3845;SDS011;1938;50.812;7.738;2023-04-29T10:22:28;24.40;;;12.27;;
3845;SDS011;1938;50.812;7.738;2023-04-29T10:25:04;26.10;;;13.00;;
3845;SDS011;1938;50.812;7.738;2023-04-29T10:27:31;21.27;;;12.23;;
3845;SDS011;1938;50.812;7.738;2023-04-29T10:29:58;22.87;;;12.80;;
3845;SDS011;1938;50.812;7.738;2023-04-29T10:32:26;25.30;;;12.57;;
3845;SDS011;1938;50.812;7.738;2023-04-29T10:34:55;23.00;;;13.13;;
3845;SDS011;1938;50.812;7.738;2023-04-29T10:37:22;23.57;;;10.33;;
3845;SDS011;1938;50.812;7.738;2023-04-29T10:39:49;22.50;;;12.50;;
3845;SDS011;1938;50.812;7.738;2023-04-29T10:42:35;24.73;;;13.27;;
3845;SDS011;1938;50.812;7.738;2023-04-29T10:51:12;27.70;;;13.70;;
3845;SDS011;1938;50.812;7.738;2023-04-29T10:53:13;34.23;;;15.90;;
3845;SDS011;1938;50.812;7.738;2023-04-29T10:55:40;31.03;;;13.50;;
3845;SDS011;1938;50.812;7.738;2023-04-29T10:58:32;31.40;;;15.03;;
3845;SDS011;1938;50.812;7.738;2023-04-29T11:01:09;34.77;;;16.70;;
3845;SDS011;1938;50.812;7.738;2023-04-29T11:03:45;37.40;;;16.80;;
3845;SDS011;1938;50.812;7.738;2023-04-29T11:06:42;42.37;;;17.57;;
3845;SDS011;1938;50.812;7.738;2023-04-29T11:09:12;37.10;;;15.47;;
3845;SDS011;1938;50.812;7.738;2023-04-29T11:17:12;35.90;;;15.93;;
3845;SDS011;1938;50.812;7.738;2023-04-29T11:19:40;36.23;;;16.50;;
3845;SDS011;1938;50.812;7.738;2023-04-29T11:22:10;29.00;;;14.93;;
3845;SDS011;1938;50.812;7.738;2023-04-29T11:24:51;36.70;;;16.70;;
3845;SDS011;1938;50.812;7.738;2023-04-29T11:27:18;43.60;;;22.20;;
3845;SDS011;1938;50.812;7.738;2023-04-29T11:29:47;166.53;;;82.60;;
3845;SDS011;1938;50.812;7.738;2023-04-29T11:32:15;33.20;;;15.10;;
3845;SDS011;1938;50.812;7.738;2023-04-29T11:34:45;29.37;;;14.30;;
3845;SDS011;1938;50.812;7.738;2023-04-29T11:37:11;30.00;;;13.97;;
3845;SDS011;1938;50.812;7.738;2023-04-29T11:39:36;35.90;;;15.63;;
3845;SDS011;1938;50.812;7.738;2023-04-29T11:42:03;30.80;;;14.00;;
3845;SDS011;1938;50.812;7.738;2023-04-29T11:44:29;30.50;;;12.00;;
3845;SDS011;1938;50.812;7.738;2023-04-29T11:47:02;25.97;;;13.30;;
3845;SDS011;1938;50.812;7.738;2023-04-29T11:49:31;23.07;;;11.00;;
3845;SDS011;1938;50.812;7.738;2023-04-29T11:51:57;23.00;;;10.90;;
3845;SDS011;1938;50.812;7.738;2023-04-29T11:54:24;26.57;;;11.57;;
3845;SDS011;1938;50.812;7.738;2023-04-29T11:56:52;22.27;;;11.23;;
3845;SDS011;1938;50.812;7.738;2023-04-29T11:59:19;25.07;;;11.90;;
3845;SDS011;1938;50.812;7.738;2023-04-29T12:01:45;28.50;;;11.80;;
3845;SDS011;1938;50.812;7.738;2023-04-29T12:04:12;30.60;;;11.70;;
3845;SDS011;1938;50.812;7.738;2023-04-29T12:06:37;25.53;;;10.07;;
3845;SDS011;1938;50.812;7.738;2023-04-29T12:09:03;23.43;;;11.60;;
3845;SDS011;1938;50.812;7.738;2023-04-29T12:11:28;34.13;;;9.90;;
3845;SDS011;1938;50.812;7.738;2023-04-29T12:13:55;25.90;;;10.17;;
3845;SDS011;1938;50.812;7.738;2023-04-29T12:16:21;21.30;;;11.30;;
3845;SDS011;1938;50.812;7.738;2023-04-29T12:18:49;19.67;;;9.13;;
3845;SDS011;1938;50.812;7.738;2023-04-29T12:21:15;21.20;;;9.70;;
3845;SDS011;1938;50.812;7.738;2023-04-29T12:23:41;19.60;;;9.90;;
3845;SDS011;1938;50.812;7.738;2023-04-29T12:26:08;16.80;;;9.90;;
3845;SDS011;1938;50.812;7.738;2023-04-29T12:28:34;15.33;;;8.03;;
3845;SDS011;1938;50.812;7.738;2023-04-29T12:31:00;15.97;;;8.30;;
3845;SDS011;1938;50.812;7.738;2023-04-29T12:33:27;15.07;;;7.30;;
3845;SDS011;1938;50.812;7.738;2023-04-29T12:35:54;19.03;;;10.10;;
3845;SDS011;1938;50.812;7.738;2023-04-29T12:38:25;20.00;;;10.20;;
3845;SDS011;1938;50.812;7.738;2023-04-29T12:40:52;17.50;;;10.00;;
3845;SDS011;1938;50.812;7.738;2023-04-29T12:43:26;15.40;;;8.83;;
3845;SDS011;1938;50.812;7.738;2023-04-29T12:46:01;16.47;;;8.47;;
3845;SDS011;1938;50.812;7.738;2023-04-29T12:48:34;17.57;;;8.30;;
3845;SDS011;1938;50.812;7.738;2023-04-29T12:51:04;16.40;;;7.40;;
3845;SDS011;1938;50.812;7.738;2023-04-29T12:53:35;13.37;;;6.47;;
3845;SDS011;1938;50.812;7.738;2023-04-29T12:56:00;15.10;;;8.30;;
3845;SDS011;1938;50.812;7.738;2023-04-29T12:58:29;18.03;;;8.87;;
3845;SDS011;1938;50.812;7.738;2023-04-29T13:00:55;17.10;;;9.07;;
3845;SDS011;1938;50.812;7.738;2023-04-29T13:03:21;20.80;;;10.33;;
3845;SDS011;1938;50.812;7.738;2023-04-29T13:05:48;14.70;;;7.93;;
3845;SDS011;1938;50.812;7.738;2023-04-29T13:08:17;16.57;;;7.23;;
3845;SDS011;1938;50.812;7.738;2023-04-29T13:10:43;14.50;;;8.30;;
3845;SDS011;1938;50.812;7.738;2023-04-29T13:13:09;17.07;;;7.50;;
3845;SDS011;1938;50.812;7.738;2023-04-29T13:15:35;14.37;;;8.33;;
3845;SDS011;1938;50.812;7.738;2023-04-29T13:18:03;17.90;;;9.07;;
3845;SDS011;1938;50.812;7.738;2023-04-29T13:20:28;21.93;;;9.37;;
3845;SDS011;1938;50.812;7.738;2023-04-29T13:22:54;14.53;;;7.57;;
3845;SDS011;1938;50.812;7.738;2023-04-29T13:25:20;19.60;;;8.67;;
3845;SDS011;1938;50.812;7.738;2023-04-29T13:27:46;17.30;;;8.57;;
3845;SDS011;1938;50.812;7.738;2023-04-29T13:30:12;27.50;;;15.03;;
3845;SDS011;1938;50.812;7.738;2023-04-29T13:32:37;118.23;;;60.60;;
3845;SDS011;1938;50.812;7.738;2023-04-29T13:35:05;18.20;;;10.37;;
3845;SDS011;1938;50.812;7.738;2023-04-29T13:37:31;17.43;;;8.97;;
3845;SDS011;1938;50.812;7.738;2023-04-29T13:39:57;16.43;;;7.50;;
3845;SDS011;1938;50.812;7.738;2023-04-29T13:42:22;17.80;;;8.57;;
3845;SDS011;1938;50.812;7.738;2023-04-29T13:44:48;18.27;;;8.50;;
3845;SDS011;1938;50.812;7.738;2023-04-29T13:47:14;14.13;;;8.23;;
3845;SDS011;1938;50.812;7.738;2023-04-29T13:49:41;19.90;;;9.13;;
3845;SDS011;1938;50.812;7.738;2023-04-29T13:52:11;17.73;;;8.87;;
3845;SDS011;1938;50.812;7.738;2023-04-29T13:54:37;17.07;;;9.40;;
3845;SDS011;1938;50.812;7.738;2023-04-29T13:57:03;19.00;;;9.80;;
3845;SDS011;1938;50.812;7.738;2023-04-29T13:59:31;21.50;;;10.60;;
3845;SDS011;1938;50.812;7.738;2023-04-29T14:01:57;13.40;;;6.97;;
3845;SDS011;1938;50.812;7.738;2023-04-29T14:04:23;23.17;;;9.37;;
3845;SDS011;1938;50.812;7.738;2023-04-29T14:06:50;17.73;;;9.17;;
3845;SDS011;1938;50.812;7.738;2023-04-29T14:09:15;17.20;;;8.40;;
3845;SDS011;1938;50.812;7.738;2023-04-29T14:11:42;19.77;;;9.23;;
3845;SDS011;1938;50.812;7.738;2023-04-29T14:14:08;18.73;;;9.30;;
3845;SDS011;1938;50.812;7.738;2023-04-29T14:16:33;19.37;;;10.03;;
3845;SDS011;1938;50.812;7.738;2023-04-29T14:18:59;16.73;;;8.80;;
3845;SDS011;1938;50.812;7.738;2023-04-29T14:21:24;19.27;;;10.47;;
3845;SDS011;1938;50.812;7.738;2023-04-29T14:23:51;26.07;;;9.90;;
3845;SDS011;1938;50.812;7.738;2023-04-29T14:26:16;21.27;;;9.80;;
3845;SDS011;1938;50.812;7.738;2023-04-29T14:28:42;18.70;;;9.77;;
3845;SDS011;1938;50.812;7.738;2023-04-29T14:31:08;18.87;;;9.00;;
3845;SDS011;1938;50.812;7.738;2023-04-29T14:33:33;22.77;;;10.90;;
3845;SDS011;1938;50.812;7.738;2023-04-29T14:35:59;22.93;;;11.70;;
3845;SDS011;1938;50.812;7.738;2023-04-29T14:38:25;26.03;;;12.67;;
3845;SDS011;1938;50.812;7.738;2023-04-29T14:40:50;21.87;;;10.80;;
3845;SDS011;1938;50.812;7.738;2023-04-29T14:43:16;21.67;;;10.27;;
3845;SDS011;1938;50.812;7.738;2023-04-29T14:45:42;19.60;;;9.37;;
3845;SDS011;1938;50.812;7.738;2023-04-29T14:48:09;21.47;;;11.47;;
3845;SDS011;1938;50.812;7.738;2023-04-29T14:50:34;24.00;;;11.83;;
3845;SDS011;1938;50.812;7.738;2023-04-29T14:53:00;29.27;;;12.70;;
3845;SDS011;1938;50.812;7.738;2023-04-29T14:55:26;18.77;;;10.37;;
3845;SDS011;1938;50.812;7.738;2023-04-29T14:57:51;24.77;;;10.10;;
3845;SDS011;1938;50.812;7.738;2023-04-29T15:00:17;20.90;;;10.87;;
3845;SDS011;1938;50.812;7.738;2023-04-29T15:02:43;24.53;;;10.87;;
3845;SDS011;1938;50.812;7.738;2023-04-29T15:05:09;21.83;;;12.13;;
3845;SDS011;1938;50.812;7.738;2023-04-29T15:07:35;22.47;;;12.10;;
3845;SDS011;1938;50.812;7.738;2023-04-29T15:10:01;19.90;;;10.70;;
3845;SDS011;1938;50.812;7.738;2023-04-29T15:12:26;22.80;;;12.37;;
3845;SDS011;1938;50.812;7.738;2023-04-29T15:14:52;21.07;;;10.80;;
3845;SDS011;1938;50.812;7.738;2023-04-29T15:17:18;20.83;;;10.70;;